createdAt,value
2019-02-02T00:00:08.015Z,97.55
2019-02-02T00:01:06.945Z,97.38
2019-02-02T00:02:07.026Z,97.28
2019-02-02T00:03:06.926Z,97.34
2019-02-02T00:04:06.919Z,97.49
2019-02-02T00:05:06.888Z,97.59
2019-02-02T00:06:06.899Z,97.75
2019-02-02T00:07:06.881Z,97.24
2019-02-02T00:08:06.988Z,97.75
2019-02-02T00:09:06.865Z,98.01
2019-02-02T00:10:06.859Z,97.03
2019-02-02T00:11:07.991Z,97.75
2019-02-02T00:12:06.820Z,97.80
2019-02-02T00:13:06.930Z,97.80
2019-02-02T00:14:06.791Z,97.75
2019-02-02T00:15:06.792Z,96.61
2019-02-02T00:16:06.762Z,97.65
2019-02-02T00:17:06.844Z,96.82
2019-02-02T00:18:06.806Z,97.65
2019-02-02T00:19:06.783Z,96.82
2019-02-02T00:20:06.723Z,96.82
2019-02-02T00:21:06.714Z,97.75
2019-02-02T00:22:06.783Z,97.75
2019-02-02T00:23:06.704Z,97.65
2019-02-02T00:24:07.745Z,97.03
2019-02-02T00:25:06.665Z,96.92
2019-02-02T00:26:06.656Z,96.61
2019-02-02T00:27:06.726Z,96.92
2019-02-02T00:28:06.646Z,96.30
2019-02-02T00:29:06.657Z,96.92
2019-02-02T00:30:06.607Z,96.92
2019-02-02T00:31:06.699Z,96.82
2019-02-02T00:32:06.588Z,96.92
2019-02-02T00:33:06.678Z,96.50
2019-02-02T00:34:06.559Z,96.55
2019-02-02T00:35:06.559Z,96.50
2019-02-02T00:36:06.540Z,96.50
2019-02-02T00:37:06.542Z,96.82
2019-02-02T00:38:06.530Z,96.61
2019-02-02T00:39:06.540Z,96.61
2019-02-02T00:40:06.501Z,96.50
2019-02-02T00:41:06.582Z,96.61
2019-02-02T00:42:06.553Z,96.50
2019-02-02T00:43:06.482Z,96.50
2019-02-02T00:44:06.483Z,96.40
2019-02-02T00:45:06.450Z,96.50
2019-02-02T00:46:06.523Z,96.82
2019-02-02T00:47:06.424Z,96.82
2019-02-02T00:48:06.504Z,96.71
2019-02-02T00:49:06.408Z,96.71
2019-02-02T00:50:06.496Z,96.50
2019-02-02T00:51:06.376Z,96.82
2019-02-02T00:52:06.426Z,96.82
2019-02-02T00:53:06.368Z,96.50
2019-02-02T00:54:06.357Z,96.82
2019-02-02T00:55:06.338Z,96.76
2019-02-02T00:56:06.511Z,96.82
2019-02-02T00:57:06.308Z,96.82
2019-02-02T00:58:06.330Z,96.50
2019-02-02T00:59:06.288Z,96.44
2019-02-02T01:00:07.288Z,96.61
2019-02-02T01:01:06.259Z,96.55
2019-02-02T01:02:06.299Z,96.82
2019-02-02T01:03:06.271Z,97.03
2019-02-02T01:04:06.230Z,96.82
2019-02-02T01:05:06.311Z,97.65
2019-02-02T01:06:06.201Z,97.65
2019-02-02T01:07:07.272Z,96.92
2019-02-02T01:08:06.171Z,97.03
2019-02-02T01:09:06.223Z,97.80
2019-02-02T01:10:06.153Z,97.65
2019-02-02T01:11:07.235Z,97.75
2019-02-02T01:12:06.133Z,97.55
2019-02-02T01:13:06.144Z,97.80
2019-02-02T01:14:06.124Z,97.65
2019-02-02T01:15:06.185Z,97.65
2019-02-02T01:16:06.085Z,96.92
2019-02-02T01:17:06.116Z,96.71
2019-02-02T01:18:06.066Z,96.30
2019-02-02T01:19:06.068Z,96.86
2019-02-02T01:20:06.048Z,97.03
2019-02-02T01:21:06.088Z,96.82
2019-02-02T01:22:06.028Z,97.17
2019-02-02T01:23:07.057Z,97.03
2019-02-02T01:24:11.268Z,97.07
2019-02-02T01:25:05.990Z,97.03
2019-02-02T01:26:06.040Z,97.70
2019-02-02T01:27:05.980Z,97.91
2019-02-02T01:28:06.084Z,97.75
2019-02-02T01:29:05.960Z,97.65
2019-02-02T01:30:06.010Z,97.75
2019-02-02T01:31:05.923Z,97.59
2019-02-02T01:32:06.961Z,97.65
2019-02-02T01:33:05.902Z,97.24
2019-02-02T01:34:05.924Z,97.34
2019-02-02T01:35:05.883Z,97.34
2019-02-02T01:36:05.915Z,97.44
2019-02-02T01:37:05.854Z,97.55
2019-02-02T01:38:05.957Z,97.44
2019-02-02T01:39:05.844Z,97.24
2019-02-02T01:40:05.824Z,97.34
2019-02-02T01:41:05.854Z,97.28
2019-02-02T01:42:05.796Z,97.75
2019-02-02T01:43:05.886Z,97.75
2019-02-02T01:44:05.788Z,97.75
2019-02-02T01:45:05.756Z,97.55
2019-02-02T01:46:05.746Z,97.75
2019-02-02T01:47:05.758Z,97.75
2019-02-02T01:48:05.717Z,97.75
2019-02-02T01:49:05.837Z,97.49
2019-02-02T01:50:05.698Z,97.24
2019-02-02T01:51:05.689Z,97.44
2019-02-02T01:52:05.809Z,97.44
2019-02-02T01:53:05.669Z,97.34
2019-02-02T01:54:05.784Z,97.49
2019-02-02T01:55:05.640Z,97.24
2019-02-02T01:56:05.633Z,97.34
2019-02-02T01:57:05.621Z,97.91
2019-02-02T01:58:16.038Z,97.91
2019-02-02T01:59:06.611Z,97.86
2019-02-02T02:00:05.642Z,97.34
2019-02-02T02:01:05.593Z,97.80
2019-02-02T02:02:05.682Z,97.24
2019-02-02T02:03:05.563Z,97.34
2019-02-02T02:04:05.664Z,97.44
2019-02-02T02:05:05.544Z,97.28
2019-02-02T02:06:05.554Z,97.24
2019-02-02T02:07:05.515Z,97.44
2019-02-02T02:08:05.585Z,97.03
2019-02-02T02:09:05.515Z,97.24
2019-02-02T02:10:12.276Z,97.38
2019-02-02T02:11:05.479Z,97.86
2019-02-02T02:12:05.459Z,97.24
2019-02-02T02:13:05.448Z,97.75
2019-02-02T02:14:06.466Z,97.75
2019-02-02T02:15:05.428Z,97.17
2019-02-02T02:16:05.429Z,97.49
2019-02-02T02:17:05.498Z,97.70
2019-02-02T02:18:05.389Z,97.38
2019-02-02T02:19:05.494Z,97.28
2019-02-02T02:20:05.369Z,97.38
2019-02-02T02:21:05.469Z,97.38
2019-02-02T02:22:05.354Z,97.49
2019-02-02T02:23:07.340Z,97.03
2019-02-02T02:24:05.341Z,97.65
2019-02-02T02:25:06.361Z,97.34
2019-02-02T02:26:05.303Z,97.24
2019-02-02T02:27:05.382Z,97.24
2019-02-02T02:28:05.273Z,97.44
2019-02-02T02:29:05.364Z,97.24
2019-02-02T02:30:05.256Z,97.65
2019-02-02T02:31:07.294Z,97.38
2019-02-02T02:32:05.224Z,97.34
2019-02-02T02:33:05.219Z,97.49
2019-02-02T02:34:05.220Z,97.55
2019-02-02T02:35:07.265Z,97.59
2019-02-02T02:36:05.184Z,97.24
2019-02-02T02:37:06.287Z,97.65
2019-02-02T02:38:05.226Z,97.55
2019-02-02T02:39:05.159Z,97.59
2019-02-02T02:40:05.160Z,96.82
2019-02-02T02:41:05.127Z,96.92
2019-02-02T02:42:06.238Z,96.76
2019-02-02T02:43:05.098Z,97.75
2019-02-02T02:44:06.199Z,97.70
2019-02-02T02:45:05.089Z,97.70
2019-02-02T02:46:06.100Z,97.80
2019-02-02T02:47:05.070Z,97.34
2019-02-02T02:48:05.116Z,97.59
2019-02-02T02:49:05.056Z,97.07
2019-02-02T02:50:05.054Z,97.80
2019-02-02T02:51:05.021Z,97.80
2019-02-02T02:52:05.083Z,97.59
2019-02-02T02:53:05.002Z,97.07
2019-02-02T02:54:05.005Z,97.70
2019-02-02T02:55:04.993Z,97.80
2019-02-02T02:56:04.963Z,97.65
2019-02-02T02:57:05.023Z,97.55
2019-02-02T02:58:04.936Z,97.55
2019-02-02T02:59:04.938Z,97.49
2019-02-02T03:00:04.917Z,97.59
2019-02-02T03:01:04.996Z,97.91
2019-02-02T03:02:04.897Z,97.70
2019-02-02T03:03:05.956Z,97.75
2019-02-02T03:04:04.885Z,97.38
2019-02-02T03:05:04.876Z,96.97
2019-02-02T03:06:04.938Z,97.70
2019-02-02T03:07:04.840Z,97.49
2019-02-02T03:08:04.869Z,97.49
2019-02-02T03:09:04.830Z,97.86
2019-02-02T03:10:04.819Z,97.28
2019-02-02T03:11:04.880Z,97.44
2019-02-02T03:12:04.770Z,97.17
2019-02-02T03:13:04.813Z,97.28
2019-02-02T03:14:04.750Z,97.44
2019-02-02T03:15:04.750Z,97.24
2019-02-02T03:16:04.737Z,97.49
2019-02-02T03:17:05.811Z,97.24
2019-02-02T03:18:04.702Z,97.91
2019-02-02T03:19:04.722Z,97.17
2019-02-02T03:20:04.702Z,97.49
2019-02-02T03:21:04.673Z,97.49
2019-02-02T03:22:04.724Z,97.38
2019-02-02T03:23:04.657Z,97.49
2019-02-02T03:24:04.668Z,97.49
2019-02-02T03:25:04.645Z,97.28
2019-02-02T03:26:04.626Z,97.49
2019-02-02T03:27:04.621Z,97.80
2019-02-02T03:28:04.627Z,97.49
2019-02-02T03:29:04.585Z,97.70
2019-02-02T03:30:04.628Z,98.01
2019-02-02T03:31:04.647Z,97.59
2019-02-02T03:32:04.560Z,97.80
2019-02-02T03:33:05.601Z,97.49
2019-02-02T03:34:04.540Z,97.80
2019-02-02T03:35:04.558Z,98.01
2019-02-02T03:36:04.519Z,97.91
2019-02-02T03:37:04.499Z,97.91
2019-02-02T03:38:04.519Z,97.91
2019-02-02T03:39:04.486Z,97.75
2019-02-02T03:40:04.500Z,97.86
2019-02-02T03:41:04.460Z,97.75
2019-02-02T03:42:04.445Z,97.70
2019-02-02T03:43:04.468Z,97.44
2019-02-02T03:44:04.421Z,97.75
2019-02-02T03:45:04.442Z,97.24
2019-02-02T03:46:04.402Z,97.28
2019-02-02T03:47:04.392Z,97.44
2019-02-02T03:48:04.375Z,97.65
2019-02-02T03:49:04.474Z,97.24
2019-02-02T03:50:04.374Z,97.44
2019-02-02T03:51:04.404Z,97.75
2019-02-02T03:52:04.336Z,97.28
2019-02-02T03:53:04.335Z,97.75
2019-02-02T03:54:08.847Z,97.59
2019-02-02T03:55:04.415Z,97.80
2019-02-02T03:56:04.277Z,97.65
2019-02-02T03:57:04.308Z,97.34
2019-02-02T03:58:04.256Z,97.49
2019-02-02T03:59:06.600Z,97.28
2019-02-02T04:00:04.247Z,97.38
2019-02-02T04:01:05.307Z,97.49
2019-02-02T04:02:04.211Z,97.53
2019-02-02T04:03:04.198Z,97.49
2019-02-02T04:04:04.290Z,97.91
2019-02-02T04:05:04.189Z,98.11
2019-02-02T04:06:04.221Z,98.22
2019-02-02T04:07:04.141Z,97.49
2019-02-02T04:08:04.141Z,98.32
2019-02-02T04:09:04.133Z,98.32
2019-02-02T04:10:04.241Z,98.43
2019-02-02T04:11:04.122Z,97.70
2019-02-02T04:12:04.132Z,98.11
2019-02-02T04:13:04.092Z,97.80
2019-02-02T04:14:04.082Z,98.01
2019-02-02T04:15:04.185Z,98.01
2019-02-02T04:16:04.063Z,98.11
2019-02-02T04:17:04.063Z,97.91
2019-02-02T04:18:04.034Z,97.80
2019-02-02T04:19:04.024Z,97.91
2019-02-02T04:20:04.125Z,98.11
2019-02-02T04:21:04.120Z,98.01
2019-02-02T04:22:04.106Z,97.80
2019-02-02T04:23:03.976Z,98.32
2019-02-02T04:24:03.967Z,98.18
2019-02-02T04:25:03.976Z,97.49
2019-02-02T04:26:06.027Z,97.80
2019-02-02T04:27:03.937Z,98.01
2019-02-02T04:28:04.007Z,97.80
2019-02-02T04:29:03.918Z,98.01
2019-02-02T04:30:03.921Z,98.01
2019-02-02T04:31:03.932Z,97.91
2019-02-02T04:32:03.879Z,98.01
2019-02-02T04:33:03.950Z,97.97
2019-02-02T04:34:03.850Z,98.01
2019-02-02T04:35:03.861Z,98.01
2019-02-02T04:36:03.820Z,98.01
2019-02-02T04:37:03.922Z,97.97
2019-02-02T04:38:03.801Z,96.82
2019-02-02T04:39:03.853Z,97.80
2019-02-02T04:40:03.872Z,97.70
2019-02-02T04:41:03.773Z,97.28
2019-02-02T04:42:03.864Z,97.38
2019-02-02T04:43:03.743Z,97.70
2019-02-02T04:44:03.795Z,97.70
2019-02-02T04:45:03.738Z,98.11
2019-02-02T04:46:03.728Z,98.01
2019-02-02T04:47:03.706Z,97.44
2019-02-02T04:48:03.765Z,97.70
2019-02-02T04:49:03.675Z,97.44
2019-02-02T04:50:05.796Z,97.70
2019-02-02T04:51:04.706Z,97.38
2019-02-02T04:52:03.647Z,97.28
2019-02-02T04:53:03.709Z,97.49
2019-02-02T04:54:03.639Z,97.17
2019-02-02T04:55:03.742Z,97.49
2019-02-02T04:56:03.720Z,97.80
2019-02-02T04:57:03.599Z,97.28
2019-02-02T04:58:03.649Z,96.97
2019-02-02T04:59:03.580Z,97.28
2019-02-02T05:00:03.642Z,97.28
2019-02-02T05:01:03.540Z,96.86
2019-02-02T05:02:03.620Z,97.59
2019-02-02T05:03:03.531Z,98.01
2019-02-02T05:04:03.561Z,97.17
2019-02-02T05:05:03.522Z,98.32
2019-02-02T05:06:03.595Z,97.80
2019-02-02T05:07:03.513Z,98.32
2019-02-02T05:08:03.533Z,98.11
2019-02-02T05:09:03.463Z,98.11
2019-02-02T05:10:03.513Z,97.91
2019-02-02T05:11:03.445Z,97.91
2019-02-02T05:12:03.435Z,98.01
2019-02-02T05:13:03.415Z,98.01
2019-02-02T05:14:03.436Z,97.70
2019-02-02T05:15:03.385Z,97.70
2019-02-02T05:16:03.426Z,97.70
2019-02-02T05:17:03.436Z,97.91
2019-02-02T05:18:03.356Z,97.91
2019-02-02T05:19:03.376Z,97.80
2019-02-02T05:20:03.327Z,97.91
2019-02-02T05:21:03.347Z,97.70
2019-02-02T05:22:03.308Z,97.55
2019-02-02T05:23:03.340Z,98.11
2019-02-02T05:24:03.289Z,97.65
2019-02-02T05:25:03.380Z,97.91
2019-02-02T05:26:03.279Z,97.97
2019-02-02T05:27:03.330Z,98.07
2019-02-02T05:28:03.241Z,98.07
2019-02-02T05:29:03.260Z,98.07
2019-02-02T05:30:03.238Z,98.01
2019-02-02T05:31:03.332Z,98.07
2019-02-02T05:32:03.191Z,97.86
2019-02-02T05:33:03.192Z,98.07
2019-02-02T05:34:03.173Z,97.86
2019-02-02T05:35:04.183Z,97.55
2019-02-02T05:36:03.173Z,97.70
2019-02-02T05:37:04.223Z,97.28
2019-02-02T05:38:03.138Z,97.49
2019-02-02T05:39:05.295Z,97.28
2019-02-02T05:40:03.119Z,97.17
2019-02-02T05:41:03.226Z,97.80
2019-02-02T05:42:03.098Z,97.38
2019-02-02T05:43:03.116Z,97.49
2019-02-02T05:44:03.066Z,97.70
2019-02-02T05:45:03.147Z,97.44
2019-02-02T05:46:03.075Z,97.59
2019-02-02T05:47:03.077Z,96.97
2019-02-02T05:48:03.027Z,97.70
2019-02-02T05:49:03.021Z,97.49
2019-02-02T05:50:03.000Z,98.01
2019-02-02T05:51:03.099Z,97.91
2019-02-02T05:52:02.979Z,97.91
2019-02-02T05:53:02.980Z,97.91
2019-02-02T05:54:03.040Z,98.32
2019-02-02T05:55:02.950Z,98.11
2019-02-02T05:56:03.037Z,96.71
2019-02-02T05:57:02.921Z,97.91
2019-02-02T05:58:02.922Z,98.01
2019-02-02T05:59:02.902Z,97.91
2019-02-02T06:00:02.962Z,97.97
2019-02-02T06:01:02.892Z,98.11
2019-02-02T06:02:02.894Z,97.91
2019-02-02T06:03:02.843Z,97.91
2019-02-02T06:04:02.934Z,97.75
2019-02-02T06:05:02.824Z,98.11
2019-02-02T06:06:02.906Z,97.75
2019-02-02T06:07:02.807Z,97.91
2019-02-02T06:08:02.896Z,97.97
2019-02-02T06:09:02.786Z,96.97
2019-02-02T06:10:02.767Z,97.91
2019-02-02T06:11:02.769Z,97.75
2019-02-02T06:12:02.767Z,97.80
2019-02-02T06:13:02.738Z,97.75
2019-02-02T06:14:02.809Z,97.70
2019-02-02T06:15:03.810Z,97.13
2019-02-02T06:16:02.728Z,97.59
2019-02-02T06:17:02.721Z,97.49
2019-02-02T06:18:02.689Z,97.65
2019-02-02T06:19:04.699Z,97.80
2019-02-02T06:20:02.669Z,97.55
2019-02-02T06:21:02.740Z,97.97
2019-02-02T06:22:02.640Z,97.97
2019-02-02T06:23:03.642Z,98.07
2019-02-02T06:24:02.621Z,97.91
2019-02-02T06:25:02.665Z,97.75
2019-02-02T06:26:02.617Z,98.11
2019-02-02T06:27:02.593Z,98.01
2019-02-02T06:28:02.572Z,97.97
2019-02-02T06:29:02.633Z,97.97
2019-02-02T06:30:04.388Z,98.01
2019-02-02T06:31:02.553Z,97.97
2019-02-02T06:32:11.592Z,98.18
2019-02-02T06:33:03.528Z,97.97
2019-02-02T06:34:02.572Z,97.86
2019-02-02T06:35:02.498Z,97.86
2019-02-02T06:36:03.656Z,97.75
2019-02-02T06:37:02.476Z,97.86
2019-02-02T06:38:02.541Z,97.91
2019-02-02T06:39:02.437Z,98.11
2019-02-02T06:40:02.477Z,98.22
2019-02-02T06:41:02.437Z,98.01
2019-02-02T06:42:02.512Z,97.86
2019-02-02T06:43:02.408Z,97.80
2019-02-02T06:44:02.450Z,98.43
2019-02-02T06:45:02.379Z,98.28
2019-02-02T06:46:02.420Z,98.07
2019-02-02T06:47:02.349Z,97.75
2019-02-02T06:48:02.420Z,98.28
2019-02-02T06:49:02.332Z,97.75
2019-02-02T06:50:02.350Z,97.91
2019-02-02T06:51:02.320Z,97.80
2019-02-02T06:52:02.292Z,98.11
2019-02-02T06:53:02.282Z,98.01
2019-02-02T06:54:02.322Z,97.75
2019-02-02T06:55:02.278Z,97.55
2019-02-02T06:56:02.303Z,97.70
2019-02-02T06:57:02.253Z,97.86
2019-02-02T06:58:02.304Z,97.75
2019-02-02T06:59:02.240Z,97.65
2019-02-02T07:00:02.236Z,97.65
2019-02-02T07:01:02.214Z,97.65
2019-02-02T07:02:02.403Z,97.91
2019-02-02T07:03:02.294Z,97.80
2019-02-02T07:04:02.206Z,97.91
2019-02-02T07:05:02.156Z,97.86
2019-02-02T07:06:02.197Z,97.86
2019-02-02T07:07:02.143Z,97.86
2019-02-02T07:08:02.129Z,97.86
2019-02-02T07:09:02.149Z,97.86
2019-02-02T07:10:02.099Z,97.75
2019-02-02T07:11:02.129Z,97.75
2019-02-02T07:12:02.080Z,97.86
2019-02-02T07:13:02.070Z,97.97
2019-02-02T07:14:04.150Z,97.65
2019-02-02T07:15:02.040Z,97.86
2019-02-02T07:16:02.120Z,97.97
2019-02-02T07:17:02.031Z,98.28
2019-02-02T07:18:02.011Z,98.18
2019-02-02T07:19:02.022Z,98.28
2019-02-02T07:20:03.017Z,97.97
2019-02-02T07:21:01.963Z,97.97
2019-02-02T07:22:02.073Z,97.91
2019-02-02T07:23:01.946Z,97.97
2019-02-02T07:24:01.963Z,97.91
2019-02-02T07:25:01.924Z,97.86
2019-02-02T07:26:01.994Z,97.97
2019-02-02T07:27:01.918Z,97.97
2019-02-02T07:28:01.938Z,97.70
2019-02-02T07:29:01.877Z,97.65
2019-02-02T07:30:04.967Z,97.55
2019-02-02T07:31:01.876Z,98.28
2019-02-02T07:32:01.956Z,98.28
2019-02-02T07:33:01.837Z,98.18
2019-02-02T07:34:01.829Z,97.65
2019-02-02T07:35:01.909Z,97.55
2019-02-02T07:36:01.809Z,97.75
2019-02-02T07:37:01.889Z,98.18
2019-02-02T07:38:01.789Z,98.18
2019-02-02T07:39:01.830Z,97.97
2019-02-02T07:40:01.759Z,97.86
2019-02-02T07:41:01.820Z,97.97
2019-02-02T07:42:01.750Z,97.65
2019-02-02T07:43:02.786Z,98.07
2019-02-02T07:44:01.831Z,97.97
2019-02-02T07:45:01.703Z,97.65
2019-02-02T07:46:01.762Z,97.44
2019-02-02T07:47:01.702Z,97.55
2019-02-02T07:48:01.702Z,97.44
2019-02-02T07:49:01.663Z,97.55
2019-02-02T07:50:01.733Z,97.03
2019-02-02T07:51:01.645Z,97.30
2019-02-02T07:52:01.714Z,97.34
2019-02-02T07:53:01.615Z,97.30
2019-02-02T07:54:01.704Z,97.34
2019-02-02T07:55:01.597Z,97.30
2019-02-02T07:56:01.636Z,97.19
2019-02-02T07:57:01.576Z,97.30
2019-02-02T07:58:01.567Z,97.30
2019-02-02T07:59:01.538Z,97.50
2019-02-02T08:00:01.528Z,97.40
2019-02-02T08:01:01.578Z,97.44
2019-02-02T08:02:01.518Z,97.44
2019-02-02T08:03:01.608Z,97.55
2019-02-02T08:04:01.479Z,97.44
2019-02-02T08:05:01.471Z,97.71
2019-02-02T08:06:01.461Z,97.81
2019-02-02T08:07:01.530Z,96.98
2019-02-02T08:08:01.462Z,96.98
2019-02-02T08:09:01.520Z,96.98
2019-02-02T08:10:01.423Z,96.77
2019-02-02T08:11:01.451Z,96.88
2019-02-02T08:12:01.413Z,96.98
2019-02-02T08:13:01.492Z,96.98
2019-02-02T08:14:01.373Z,96.77
2019-02-02T08:15:01.543Z,96.36
2019-02-02T08:16:01.354Z,96.77
2019-02-02T08:17:01.418Z,96.67
2019-02-02T08:18:01.334Z,96.77
2019-02-02T08:19:01.405Z,96.77
2019-02-02T08:20:01.316Z,96.56
2019-02-02T08:21:01.308Z,96.46
2019-02-02T08:22:01.311Z,96.56
2019-02-02T08:23:02.298Z,96.67
2019-02-02T08:24:01.267Z,96.77
2019-02-02T08:25:01.309Z,96.73
2019-02-02T08:26:01.277Z,96.25
2019-02-02T08:27:01.258Z,96.46
2019-02-02T08:28:01.323Z,96.36
2019-02-02T08:29:01.219Z,96.25
2019-02-02T08:30:08.209Z,96.56
2019-02-02T08:31:01.190Z,96.67
2019-02-02T08:32:01.241Z,96.67
2019-02-02T08:33:01.169Z,96.73
2019-02-02T08:34:01.220Z,96.67
2019-02-02T08:35:01.142Z,96.77
2019-02-02T08:36:03.984Z,96.62
2019-02-02T08:37:01.173Z,96.46
2019-02-02T08:38:01.111Z,96.11
2019-02-02T08:39:01.162Z,96.83
2019-02-02T08:40:01.165Z,96.15
2019-02-02T08:41:01.093Z,96.11
2019-02-02T08:42:01.114Z,96.42
2019-02-02T08:43:01.054Z,96.52
2019-02-02T08:44:01.105Z,96.11
2019-02-02T08:45:01.026Z,96.62
2019-02-02T08:46:01.134Z,96.21
2019-02-02T08:47:01.015Z,96.36
2019-02-02T08:48:02.086Z,96.42
2019-02-02T08:49:00.976Z,96.42
2019-02-02T08:50:00.997Z,96.42
2019-02-02T08:51:00.959Z,96.42
2019-02-02T08:52:00.996Z,96.42
2019-02-02T08:53:00.949Z,96.31
2019-02-02T08:54:03.379Z,96.42
2019-02-02T08:55:00.909Z,96.31
2019-02-02T08:56:00.918Z,96.42
2019-02-02T08:57:00.897Z,96.26
2019-02-02T08:58:00.907Z,96.48
2019-02-02T08:59:01.019Z,96.26
2019-02-02T09:00:00.861Z,96.52
2019-02-02T09:01:04.175Z,96.31
2019-02-02T09:02:00.851Z,96.21
2019-02-02T09:03:00.833Z,96.37
2019-02-02T09:04:00.824Z,96.58
2019-02-02T09:05:02.136Z,97.58
2019-02-02T09:06:00.800Z,96.75
2019-02-02T09:07:00.914Z,96.22
2019-02-02T09:08:00.773Z,96.33
2019-02-02T09:09:00.793Z,96.08
2019-02-02T09:10:00.755Z,95.76
2019-02-02T09:11:00.834Z,95.87
2019-02-02T09:12:00.746Z,94.93
2019-02-02T09:13:00.767Z,94.93
2019-02-02T09:14:00.706Z,94.93
2019-02-02T09:15:00.806Z,93.89
2019-02-02T09:16:00.687Z,94.20
2019-02-02T09:17:00.787Z,93.95
2019-02-02T09:18:00.657Z,94.20
2019-02-02T09:19:00.647Z,94.31
2019-02-02T09:20:01.667Z,93.54
2019-02-02T09:21:00.629Z,93.74
2019-02-02T09:22:01.698Z,93.95
2019-02-02T09:23:06.259Z,93.33
2019-02-02T09:24:01.590Z,93.12
2019-02-02T09:25:00.680Z,92.80
2019-02-02T09:26:00.581Z,93.33
2019-02-02T09:27:00.620Z,93.23
2019-02-02T09:28:00.571Z,93.33
2019-02-02T09:29:00.522Z,92.60
2019-02-02T09:30:00.522Z,92.54
2019-02-02T09:31:00.592Z,93.12
2019-02-02T09:32:00.492Z,93.01
2019-02-02T09:33:00.566Z,93.43
2019-02-02T09:34:00.473Z,92.60
2019-02-02T09:35:00.564Z,92.29
2019-02-02T09:36:00.445Z,91.87
2019-02-02T09:37:00.494Z,92.39
2019-02-02T09:38:00.434Z,91.56
2019-02-02T09:39:00.525Z,91.04
2019-02-02T09:40:00.536Z,91.56
2019-02-02T09:41:00.466Z,91.77
2019-02-02T09:42:00.376Z,91.87
2019-02-02T09:43:00.458Z,91.56
2019-02-02T09:44:00.374Z,92.29
2019-02-02T09:45:00.358Z,91.97
2019-02-02T09:46:00.348Z,92.08
2019-02-02T09:47:00.378Z,92.70
2019-02-02T09:48:00.340Z,92.49
2019-02-02T09:49:00.419Z,92.60
2019-02-02T09:50:00.300Z,92.49
2019-02-02T09:51:00.350Z,92.60
2019-02-02T09:52:00.280Z,92.39
2019-02-02T09:53:01.360Z,92.60
2019-02-02T09:54:00.252Z,92.60
2019-02-02T09:55:00.373Z,92.39
2019-02-02T09:56:00.234Z,91.77
2019-02-02T09:57:00.263Z,92.18
2019-02-02T09:58:00.222Z,92.08
2019-02-02T09:59:00.293Z,92.70
2019-02-02T10:00:00.194Z,92.70
2019-02-02T10:01:00.178Z,92.70
2019-02-02T10:02:00.164Z,92.70
2019-02-02T10:03:00.215Z,92.80
2019-02-02T10:04:00.135Z,93.12
2019-02-02T10:05:00.355Z,92.91
2019-02-02T10:06:00.165Z,92.70
2019-02-02T10:07:00.099Z,92.91
2019-02-02T10:08:00.146Z,92.80
2019-02-02T10:09:00.077Z,92.66
2019-02-02T10:10:00.389Z,92.66
2019-02-02T10:11:00.068Z,92.14
2019-02-02T10:12:00.070Z,92.24
2019-02-02T10:13:00.048Z,91.83
2019-02-02T10:14:00.108Z,91.72
2019-02-02T10:15:00.009Z,91.10
2019-02-02T10:16:00.039Z,91.31
2019-02-02T10:16:59.999Z,91.41
2019-02-02T10:18:00.020Z,91.20
2019-02-02T10:18:59.962Z,91.31
2019-02-02T10:20:00.011Z,91.52
2019-02-02T10:21:04.085Z,91.31
2019-02-02T10:21:59.940Z,91.20
2019-02-02T10:22:59.932Z,91.20
2019-02-02T10:24:00.003Z,91.20
2019-02-02T10:24:59.895Z,91.52
2019-02-02T10:25:59.933Z,91.10
2019-02-02T10:26:59.885Z,91.52
2019-02-02T10:27:59.916Z,91.72
2019-02-02T10:28:59.864Z,91.83
2019-02-02T10:29:59.906Z,91.72
2019-02-02T10:30:59.835Z,91.77
2019-02-02T10:31:59.935Z,92.35
2019-02-02T10:32:59.826Z,92.24
2019-02-02T10:33:59.876Z,91.72
2019-02-02T10:34:59.798Z,91.72
2019-02-02T10:35:59.807Z,91.72
2019-02-02T10:36:59.767Z,91.93
2019-02-02T10:37:59.778Z,91.62
2019-02-02T10:38:59.748Z,91.72
2019-02-02T10:39:59.779Z,92.14
2019-02-02T10:40:59.719Z,92.35
2019-02-02T10:41:59.809Z,92.55
2019-02-02T10:42:59.719Z,91.72
2019-02-02T10:44:00.771Z,91.62
2019-02-02T10:44:59.681Z,91.62
2019-02-02T10:45:59.681Z,91.72
2019-02-02T10:46:59.655Z,91.41
2019-02-02T10:48:01.712Z,91.62
2019-02-02T10:48:59.622Z,91.83
2019-02-02T10:49:59.652Z,91.72
2019-02-02T10:50:59.612Z,91.62
2019-02-02T10:51:59.695Z,91.52
2019-02-02T10:52:59.600Z,91.52
2019-02-02T10:53:59.564Z,90.89
2019-02-02T10:54:59.594Z,91.31
2019-02-02T10:55:59.545Z,91.37
2019-02-02T10:56:59.635Z,91.47
2019-02-02T10:57:59.546Z,91.16
2019-02-02T10:58:59.528Z,90.95
2019-02-02T10:59:59.501Z,91.47
2019-02-02T11:00:59.642Z,91.06
2019-02-02T11:01:59.478Z,90.85
2019-02-02T11:03:00.668Z,90.95
2019-02-02T11:03:59.458Z,90.85
2019-02-02T11:04:59.571Z,91.06
2019-02-02T11:05:59.430Z,90.95
2019-02-02T11:06:59.627Z,90.85
2019-02-02T11:07:59.541Z,91.27
2019-02-02T11:08:59.459Z,91.27
2019-02-02T11:09:59.431Z,90.95
2019-02-02T11:10:59.549Z,91.37
2019-02-02T11:11:59.507Z,91.37
2019-02-02T11:12:59.612Z,90.85
2019-02-02T11:13:59.470Z,90.85
2019-02-02T11:14:59.394Z,90.64
2019-02-02T11:15:59.538Z,90.95
2019-02-02T11:16:59.534Z,91.06
2019-02-02T11:17:59.400Z,90.95
2019-02-02T11:18:59.398Z,91.06
2019-02-02T11:19:59.285Z,91.58
2019-02-02T11:21:00.389Z,91.58
2019-02-02T11:21:59.265Z,91.58
2019-02-02T11:22:59.435Z,91.47
2019-02-02T11:23:59.236Z,91.37
2019-02-02T11:24:59.281Z,91.37
2019-02-02T11:25:59.316Z,91.27
2019-02-02T11:26:59.290Z,91.37
2019-02-02T11:27:59.288Z,91.37
2019-02-02T11:29:00.314Z,91.37
2019-02-02T11:29:59.209Z,91.58
2019-02-02T11:30:59.158Z,91.68
2019-02-02T11:32:02.919Z,92.10
2019-02-02T11:32:59.140Z,92.10
2019-02-02T11:34:00.220Z,91.68
2019-02-02T11:34:59.100Z,91.47
2019-02-02T11:35:59.090Z,91.68
2019-02-02T11:36:59.091Z,91.47
2019-02-02T11:37:59.123Z,91.64
2019-02-02T11:38:59.572Z,91.47
2019-02-02T11:39:59.162Z,91.58
2019-02-02T11:40:59.035Z,91.43
2019-02-02T11:41:59.026Z,91.89
2019-02-02T11:42:59.065Z,92.26
2019-02-02T11:43:59.017Z,92.41
2019-02-02T11:44:59.094Z,92.30
2019-02-02T11:45:59.059Z,92.30
2019-02-02T11:46:58.965Z,92.20
2019-02-02T11:47:58.995Z,91.99
2019-02-02T11:48:58.966Z,91.58
2019-02-02T11:49:59.036Z,92.41
2019-02-02T11:50:58.926Z,92.72
2019-02-02T11:51:58.908Z,92.41
2019-02-02T11:52:59.631Z,92.61
2019-02-02T11:53:59.982Z,92.47
2019-02-02T11:54:58.879Z,92.57
2019-02-02T11:55:59.628Z,92.41
2019-02-02T11:56:58.869Z,92.26
2019-02-02T11:57:59.033Z,92.16
2019-02-02T11:58:58.861Z,92.68
2019-02-02T11:59:58.920Z,92.47
2019-02-02T12:00:58.821Z,92.41
2019-02-02T12:01:58.861Z,92.57
2019-02-02T12:02:58.802Z,92.78
2019-02-02T12:03:58.842Z,92.26
2019-02-02T12:04:58.773Z,92.57
2019-02-02T12:05:58.834Z,92.57
2019-02-02T12:06:58.754Z,92.88
2019-02-02T12:07:58.751Z,92.99
2019-02-02T12:08:58.787Z,92.88
2019-02-02T12:09:58.714Z,92.68
2019-02-02T12:10:58.765Z,92.01
2019-02-02T12:11:58.696Z,92.01
2019-02-02T12:12:58.687Z,91.91
2019-02-02T12:13:58.786Z,91.60
2019-02-02T12:14:58.741Z,91.39
2019-02-02T12:15:58.657Z,91.08
2019-02-02T12:16:58.669Z,91.28
2019-02-02T12:17:58.619Z,91.28
2019-02-02T12:18:58.648Z,91.28
2019-02-02T12:19:58.681Z,91.55
2019-02-02T12:20:58.639Z,91.49
2019-02-02T12:21:58.573Z,91.28
2019-02-02T12:22:58.645Z,91.18
2019-02-02T12:23:58.561Z,91.39
2019-02-02T12:25:01.591Z,91.49
2019-02-02T12:25:58.531Z,92.11
2019-02-02T12:26:58.564Z,92.32
2019-02-02T12:27:58.502Z,92.43
2019-02-02T12:28:58.502Z,92.11
2019-02-02T12:29:58.553Z,92.01
2019-02-02T12:30:58.473Z,92.11
2019-02-02T12:31:58.494Z,92.22
2019-02-02T12:32:58.447Z,92.22
2019-02-02T12:33:58.454Z,92.01
2019-02-02T12:34:58.426Z,92.53
2019-02-02T12:35:58.466Z,92.05
2019-02-02T12:36:58.416Z,92.53
2019-02-02T12:37:58.497Z,92.43
2019-02-02T12:38:58.517Z,92.63
2019-02-02T12:39:58.377Z,93.41
2019-02-02T12:40:59.714Z,93.10
2019-02-02T12:41:58.357Z,93.30
2019-02-02T12:42:58.448Z,93.93
2019-02-02T12:43:58.353Z,93.93
2019-02-02T12:44:59.399Z,93.82
2019-02-02T12:45:58.309Z,93.51
2019-02-02T12:46:58.310Z,94.13
2019-02-02T12:47:58.290Z,93.51
2019-02-02T12:48:58.402Z,93.51
2019-02-02T12:49:58.271Z,93.72
2019-02-02T12:50:58.285Z,94.13
2019-02-02T12:51:58.222Z,94.03